Time;durP1;ratioP1;P1;durP2;ratioP2;P2;SDS_P1;SDS_P2;PMS_P1;PMS_P2;Temp;Humidity;BMP_temperature;BMP_pressure;BME280_temperature;BME280_humidity;BME280_pressure;Samples;Min_cycle;Max_cycle;Signal;HPM_P1;HPM_P2
2021/11/20 19:29:32;;;;;;;32.85;16.17;;;9.00;99.90;;;;;;4723224;27;10001586;-86
2021/11/20 19:31:59;;;;;;;34.67;18.27;;;9.00;99.90;;;;;;5017236;28;20041;-85
2021/11/20 19:34:24;;;;;;;33.38;19.92;;;8.90;99.90;;;;;;4925070;28;20029;-86
2021/11/20 19:36:50;;;;;;;33.70;18.73;;;8.90;99.90;;;;;;5015908;28;20036;-86
2021/11/20 19:39:15;;;;;;;28.88;18.63;;;8.80;99.90;;;;;;5026035;28;20308;-86
2021/11/20 19:41:42;;;;;;;32.42;18.23;;;8.80;99.90;;;;;;5052144;28;20219;-88
2021/11/20 19:44:08;;;;;;;20.27;11.45;;;8.80;99.90;;;;;;5026235;28;20559;-88
2021/11/20 19:46:33;;;;;;;31.25;15.95;;;8.80;99.90;;;;;;5053185;28;20030;-86
2021/11/20 19:48:59;;;;;;;27.13;16.95;;;8.80;99.90;;;;;;5036685;28;20264;-86
2021/11/20 19:51:26;;;;;;;29.75;18.77;;;8.80;99.90;;;;;;5054241;28;20037;-86
2021/11/20 19:53:53;;;;;;;30.38;16.73;;;8.80;99.90;;;;;;5055257;28;20127;-87
2021/11/20 19:56:19;;;;;;;16.13;8.73;;;8.80;99.90;;;;;;5037722;28;20034;-86
2021/11/20 19:58:44;;;;;;;26.98;16.00;;;8.80;99.90;;;;;;5020491;28;20397;-87
2021/11/20 20:01:10;;;;;;;31.00;16.27;;;8.80;99.90;;;;;;5037224;28;20025;-86
2021/11/20 20:03:36;;;;;;;34.83;16.75;;;8.80;99.90;;;;;;5024441;28;20396;-87
2021/11/20 20:06:01;;;;;;;31.25;19.33;;;8.80;99.90;;;;;;5037524;28;20029;-87
2021/11/20 20:08:27;;;;;;;29.88;15.50;;;8.70;99.90;;;;;;5021301;28;20056;-87
2021/11/20 20:10:53;;;;;;;24.63;14.10;;;8.70;99.90;;;;;;5051768;28;20029;-86
2021/11/20 20:13:19;;;;;;;30.40;17.42;;;8.80;99.90;;;;;;5053004;28;20041;-86
2021/11/20 20:15:46;;;;;;;30.20;17.98;;;8.70;99.90;;;;;;5034946;28;20517;-86
2021/11/20 20:18:11;;;;;;;25.42;16.05;;;8.70;99.90;;;;;;5036711;28;20493;-87
2021/11/20 20:20:37;;;;;;;17.77;10.10;;;8.70;99.90;;;;;;5003751;28;20079;-86
2021/11/20 20:23:02;;;;;;;35.78;20.77;;;8.80;99.90;;;;;;5005248;28;20390;-87
2021/11/20 20:25:28;;;;;;;24.67;13.85;;;8.70;99.90;;;;;;5036421;28;20489;-86
2021/11/20 20:27:54;;;;;;;26.23;14.27;;;8.70;99.90;;;;;;5034710;28;20037;-87
2021/11/20 20:30:21;;;;;;;30.13;18.10;;;8.60;99.90;;;;;;5052293;28;20048;-86
2021/11/20 20:32:48;;;;;;;30.00;16.35;;;8.60;99.90;;;;;;5019136;28;20139;-86
2021/11/20 20:35:13;;;;;;;29.63;16.95;;;8.60;99.90;;;;;;5021180;28;20052;-86
2021/11/20 20:37:39;;;;;;;36.95;20.92;;;8.60;99.90;;;;;;5016975;28;20025;-86
2021/11/20 20:40:05;;;;;;;29.88;17.23;;;8.60;99.90;;;;;;5012292;28;20022;-86
2021/11/20 20:42:31;;;;;;;33.70;19.38;;;8.60;99.90;;;;;;5007989;28;20377;-86
2021/11/20 20:44:58;;;;;;;35.67;20.15;;;8.70;99.90;;;;;;5009642;28;20021;-85
2021/11/20 20:47:23;;;;;;;31.40;18.55;;;8.70;99.90;;;;;;5026799;28;20440;-86
2021/11/20 20:49:52;;;;;;;31.20;18.73;;;8.70;99.90;;;;;;5004529;28;20033;-86
2021/11/20 20:52:19;;;;;;;29.42;15.40;;;8.60;99.90;;;;;;5009663;28;20034;-86
2021/11/20 20:54:44;;;;;;;32.78;19.17;;;8.60;99.90;;;;;;5023150;28;20091;-86
2021/11/20 20:57:10;;;;;;;35.30;19.42;;;8.60;99.90;;;;;;5020809;28;20029;-87
2021/11/20 20:59:38;;;;;;;31.40;17.52;;;8.60;99.90;;;;;;5024322;28;20033;-87
2021/11/20 21:02:04;;;;;;;26.20;14.82;;;8.70;99.90;;;;;;5021563;28;20029;-85
2021/11/20 21:04:30;;;;;;;32.05;17.85;;;8.60;99.90;;;;;;5037263;28;20022;-86
2021/11/20 21:06:56;;;;;;;30.67;18.05;;;8.60;99.90;;;;;;5008507;28;20021;-86
2021/11/20 21:09:21;;;;;;;30.77;19.73;;;8.60;99.90;;;;;;5022590;28;20322;-86
2021/11/20 21:11:47;;;;;;;28.63;17.25;;;8.60;99.90;;;;;;5035974;28;20040;-87
2021/11/20 21:14:13;;;;;;;30.48;17.33;;;8.60;99.90;;;;;;5008997;28;20030;-87
2021/11/20 21:16:40;;;;;;;24.23;11.88;;;8.60;99.90;;;;;;5022400;28;20084;-87
2021/11/20 21:24:20;;;;;;;32.60;19.88;;;8.50;99.90;;;;;;5009297;28;20041;-86
2021/11/20 21:26:46;;;;;;;45.08;23.90;;;8.50;99.90;;;;;;5009415;28;20067;-86
2021/11/20 21:29:12;;;;;;;53.33;27.90;;;8.50;99.90;;;;;;5022561;28;20041;-87
2021/11/20 21:31:39;;;;;;;33.95;20.30;;;8.50;99.90;;;;;;5023165;28;20032;-87
2021/11/20 21:34:04;;;;;;;19.13;10.63;;;8.50;99.90;;;;;;5020367;28;20037;-86
2021/11/20 21:36:30;;;;;;;33.33;19.98;;;8.50;99.90;;;;;;5008333;28;20033;-84
2021/11/20 21:38:56;;;;;;;30.80;17.85;;;8.50;99.90;;;;;;5009953;28;20292;-85
2021/11/20 21:41:21;;;;;;;30.95;16.48;;;8.50;99.90;;;;;;5024513;28;20053;-84
2021/11/20 21:43:47;;;;;;;31.48;18.15;;;8.50;99.90;;;;;;5020504;28;20497;-85
2021/11/20 21:46:13;;;;;;;27.70;16.48;;;8.50;99.90;;;;;;5020079;28;20120;-84
2021/11/20 21:48:38;;;;;;;30.58;18.60;;;8.40;99.90;;;;;;5020847;28;20036;-84
2021/11/20 21:51:04;;;;;;;34.65;19.42;;;8.40;99.90;;;;;;5005777;28;20050;-84
2021/11/20 21:53:29;;;;;;;25.73;14.02;;;8.40;99.90;;;;;;5042282;28;20191;-85
2021/11/20 21:55:55;;;;;;;36.17;20.73;;;8.40;99.90;;;;;;4993405;28;20103;-85
2021/11/20 21:58:21;;;;;;;30.70;18.98;;;8.40;99.90;;;;;;5022193;28;20037;-84
2021/11/20 22:00:46;;;;;;;31.90;20.02;;;8.40;99.90;;;;;;5039843;28;20037;-84
2021/11/20 22:03:12;;;;;;;30.08;16.73;;;8.40;99.90;;;;;;5008571;28;20083;-84
2021/11/20 22:05:38;;;;;;;32.42;19.40;;;8.40;99.90;;;;;;5016686;28;20029;-84
2021/11/20 22:08:03;;;;;;;30.65;17.10;;;8.50;99.90;;;;;;5030364;28;20030;-84
2021/11/20 22:10:29;;;;;;;32.17;18.60;;;8.40;99.90;;;;;;5040614;28;20033;-84
2021/11/20 22:12:56;;;;;;;29.02;17.85;;;8.40;99.90;;;;;;5005804;28;20473;-84
2021/11/20 22:15:22;;;;;;;34.05;18.83;;;8.40;99.90;;;;;;5022758;28;20037;-84
2021/11/20 22:17:47;;;;;;;29.80;16.83;;;8.40;99.90;;;;;;4991448;28;20335;-84
2021/11/20 22:20:13;;;;;;;29.67;15.13;;;8.40;99.90;;;;;;5019536;28;20024;-84
2021/11/20 22:22:39;;;;;;;32.63;19.52;;;8.40;99.90;;;;;;5035966;28;20115;-84
2021/11/20 22:25:05;;;;;;;26.15;13.13;;;8.40;99.90;;;;;;5007030;28;20029;-84
2021/11/20 22:27:30;;;;;;;30.23;14.75;;;8.40;99.90;;;;;;5023353;28;20120;-85
2021/11/20 22:29:56;;;;;;;26.95;16.48;;;8.40;99.90;;;;;;5006681;28;20116;-83
2021/11/20 22:32:22;;;;;;;32.00;16.52;;;8.30;99.90;;;;;;5022202;28;20057;-84
2021/11/20 22:34:48;;;;;;;19.23;10.80;;;8.30;99.90;;;;;;5033286;28;20515;-84
2021/11/20 22:37:13;;;;;;;33.95;20.05;;;8.40;99.90;;;;;;5038973;28;20037;-84
2021/11/20 22:39:39;;;;;;;24.88;13.30;;;8.30;99.90;;;;;;5018440;28;20092;-84
2021/11/20 22:42:06;;;;;;;32.88;19.05;;;8.30;99.90;;;;;;5004929;28;20036;-84
2021/11/20 22:44:32;;;;;;;29.92;17.08;;;8.30;99.90;;;;;;5021227;28;20045;-84
2021/11/20 22:46:58;;;;;;;30.63;16.40;;;8.30;99.90;;;;;;4967638;28;20022;-84
2021/11/20 22:49:23;;;;;;;32.92;18.30;;;8.30;99.90;;;;;;5012534;28;20429;-84
2021/11/20 22:51:49;;;;;;;36.45;19.90;;;8.30;99.90;;;;;;5015839;28;20033;-84
2021/11/20 22:54:15;;;;;;;30.95;17.40;;;8.30;99.90;;;;;;5019230;28;20060;-84
2021/11/20 22:56:41;;;;;;;30.73;16.67;;;8.30;99.90;;;;;;5016078;28;20502;-84
2021/11/20 22:59:07;;;;;;;33.45;17.13;;;8.30;99.90;;;;;;5002247;28;20540;-84
2021/11/20 23:01:33;;;;;;;29.98;16.75;;;8.30;99.90;;;;;;5014544;28;20040;-84
2021/11/20 23:03:59;;;;;;;31.27;17.90;;;8.30;99.90;;;;;;4997413;28;20037;-84
2021/11/20 23:06:24;;;;;;;32.85;17.67;;;8.30;99.90;;;;;;4988645;28;20038;-84
2021/11/20 23:08:50;;;;;;;30.33;17.75;;;8.30;99.90;;;;;;5017744;28;20041;-84
2021/11/20 23:11:15;;;;;;;29.38;16.75;;;8.20;99.90;;;;;;5006278;28;20125;-83
2021/11/20 23:13:41;;;;;;;29.60;16.73;;;8.20;99.90;;;;;;5008209;28;20030;-84
2021/11/20 23:16:07;;;;;;;33.85;18.98;;;8.20;99.90;;;;;;4999488;28;20059;-84
2021/11/20 23:18:32;;;;;;;28.73;16.45;;;8.20;99.90;;;;;;4991744;28;20397;-84
2021/11/20 23:20:58;;;;;;;32.58;16.80;;;8.20;99.90;;;;;;5023945;28;20029;-84
2021/11/20 23:23:24;;;;;;;31.55;19.50;;;8.20;99.90;;;;;;5007143;28;20029;-84
2021/11/20 23:25:50;;;;;;;31.25;17.75;;;8.20;99.90;;;;;;5038752;28;20412;-84
2021/11/20 23:28:16;;;;;;;29.02;12.75;;;8.10;99.90;;;;;;5021125;28;20048;-84
2021/11/20 23:30:46;;;;;;;30.65;17.88;;;8.10;99.90;;;;;;5036992;28;20072;-84
2021/11/20 23:33:11;;;;;;;34.92;18.05;;;8.10;99.90;;;;;;5022408;28;20307;-84
2021/11/20 23:35:37;;;;;;;30.95;17.58;;;8.10;99.90;;;;;;5019394;28;20030;-84
2021/11/20 23:38:02;;;;;;;23.13;11.38;;;8.00;99.90;;;;;;4990892;28;20034;-85
2021/11/20 23:40:28;;;;;;;25.60;13.45;;;8.10;99.90;;;;;;5007063;28;20033;-84
2021/11/20 23:42:56;;;;;;;33.97;19.60;;;8.10;99.90;;;;;;5020193;28;20384;-84
2021/11/20 23:45:22;;;;;;;34.50;19.55;;;8.10;99.90;;;;;;5020241;28;20079;-84
2021/11/20 23:47:48;;;;;;;38.53;20.17;;;8.00;99.90;;;;;;5039725;28;20418;-83
2021/11/20 23:50:14;;;;;;;26.30;13.85;;;8.00;99.90;;;;;;5006127;28;20030;-84
2021/11/20 23:52:39;;;;;;;33.22;15.05;;;8.00;99.90;;;;;;4986007;28;20029;-83
2021/11/20 23:55:05;;;;;;;33.13;18.20;;;8.00;99.90;;;;;;5005409;28;20061;-83
2021/11/20 23:57:31;;;;;;;37.33;19.17;;;8.00;99.90;;;;;;5005859;28;20060;-83
2021/11/20 23:59:57;;;;;;;30.70;15.95;;;8.00;99.90;;;;;;4988709;28;20076;-83
